Time;durP1;ratioP1;P1;durP2;ratioP2;P2;SDS_P1;SDS_P2;PMS_P1;PMS_P2;Temp;Humidity;BMP_temperature;BMP_pressure;BME280_temperature;BME280_humidity;BME280_pressure;Samples;Min_cycle;Max_cycle;Signal;HPM_P1;HPM_P2
2020/12/28 00:00:07;;;;;;;1.15;0.43;;;10.50;58.20;;;;;;2471824;55;21001;-69
2020/12/28 00:02:34;;;;;;;1.05;0.43;;;10.50;58.40;;;;;;2258828;55;21491;-69
2020/12/28 00:05:09;;;;;;;1.17;0.50;;;10.50;58.80;;;;;;2488998;55;20976;-70
2020/12/28 00:07:37;;;;;;;2.05;0.65;;;10.40;58.80;;;;;;2261565;56;20929;-70
2020/12/28 00:10:04;;;;;;;1.60;0.70;;;10.40;59.00;;;;;;2490034;55;21003;-70
2020/12/28 00:12:46;;;;;;;1.60;0.60;;;10.40;58.90;;;;;;2265263;55;21548;-70
2020/12/28 00:15:17;;;;;;;1.70;0.60;;;10.40;58.80;;;;;;2257141;55;21822;-71
2020/12/28 00:17:45;;;;;;;1.30;0.60;;;10.40;59.00;;;;;;2243956;56;21501;-70
2020/12/28 00:20:12;;;;;;;0.80;0.40;;;10.40;59.30;;;;;;2490695;55;20961;-70
2020/12/28 00:22:40;;;;;;;1.10;0.50;;;10.40;59.30;;;;;;2490359;55;20948;-70
2020/12/28 00:25:07;;;;;;;0.80;0.30;;;10.40;59.50;;;;;;2490182;55;21108;-71
2020/12/28 00:27:33;;;;;;;2.28;0.65;;;10.40;59.70;;;;;;2261908;55;20961;-70
2020/12/28 00:30:03;;;;;;;1.10;0.50;;;10.40;59.60;;;;;;2489205;55;21089;-69
2020/12/28 00:32:32;;;;;;;1.48;0.50;;;10.40;59.50;;;;;;2259778;55;21059;-70
2020/12/28 00:34:58;;;;;;;2.12;0.30;;;10.40;59.80;;;;;;2490893;55;21885;-70
2020/12/28 00:37:25;;;;;;;1.30;0.50;;;10.40;59.90;;;;;;2491424;55;21504;-70
2020/12/28 00:39:52;;;;;;;0.60;0.40;;;10.40;59.70;;;;;;2489444;55;20959;-71
2020/12/28 00:42:22;;;;;;;0.80;0.37;;;10.40;60.00;;;;;;2266122;55;20980;-70
2020/12/28 00:44:48;;;;;;;0.65;0.30;;;10.40;60.00;;;;;;2484557;55;20899;-70
2020/12/28 00:47:16;;;;;;;1.15;0.40;;;10.40;60.30;;;;;;2259124;55;21529;-70
2020/12/28 00:49:43;;;;;;;1.40;0.43;;;10.40;60.10;;;;;;2264364;55;21081;-71
2020/12/28 00:52:10;;;;;;;0.98;0.40;;;10.40;60.10;;;;;;2262678;55;20968;-71
2020/12/28 00:54:38;;;;;;;0.37;0.25;;;10.40;60.00;;;;;;2491578;55;21027;-71
2020/12/28 00:57:05;;;;;;;1.08;0.40;;;10.40;59.90;;;;;;2258472;56;21824;-70
2020/12/28 00:59:32;;;;;;;0.95;0.40;;;10.40;60.00;;;;;;2260924;56;21355;-70
2020/12/28 01:01:59;;;;;;;0.90;0.37;;;10.40;59.90;;;;;;2261647;56;20944;-70
2020/12/28 01:04:32;;;;;;;1.62;0.43;;;10.40;59.70;;;;;;2489278;55;20944;-70
2020/12/28 01:06:59;;;;;;;1.08;0.40;;;10.40;59.20;;;;;;2260981;56;20956;-70
2020/12/28 01:09:25;;;;;;;2.40;0.40;;;10.40;59.10;;;;;;2260970;56;20952;-70
2020/12/28 01:11:52;;;;;;;0.43;0.30;;;10.40;59.20;;;;;;2260814;56;21768;-70
2020/12/28 01:14:19;;;;;;;0.65;0.30;;;10.40;59.20;;;;;;2489839;55;21096;-70
2020/12/28 01:16:47;;;;;;;1.10;0.40;;;10.40;59.10;;;;;;2488030;55;20985;-70
2020/12/28 01:19:13;;;;;;;0.77;0.43;;;10.40;59.30;;;;;;2489907;55;21037;-70
2020/12/28 01:21:39;;;;;;;0.62;0.30;;;10.40;59.30;;;;;;2261463;55;21036;-71
2020/12/28 01:24:06;;;;;;;0.52;0.40;;;10.40;59.30;;;;;;2265261;56;21549;-70
2020/12/28 01:26:33;;;;;;;1.02;0.43;;;10.40;59.30;;;;;;2259866;56;21025;-69
2020/12/28 01:28:59;;;;;;;0.60;0.35;;;10.40;59.20;;;;;;2489472;55;21857;-70
2020/12/28 01:31:26;;;;;;;0.68;0.30;;;10.40;59.20;;;;;;2465123;55;21064;-70
2020/12/28 01:33:53;;;;;;;0.75;0.32;;;10.40;59.50;;;;;;2249843;55;20983;-70
2020/12/28 01:36:20;;;;;;;2.12;0.50;;;10.40;59.50;;;;;;2263972;55;21469;-69
2020/12/28 01:38:46;;;;;;;1.65;0.77;;;10.50;59.20;;;;;;2488610;55;20966;-70
2020/12/28 01:41:13;;;;;;;0.50;0.30;;;10.50;59.20;;;;;;2490726;55;20998;-70
2020/12/28 01:43:41;;;;;;;0.85;0.30;;;10.50;59.20;;;;;;2261340;55;20952;-70
2020/12/28 01:46:08;;;;;;;1.58;0.50;;;10.50;59.00;;;;;;2261565;56;21698;-70
2020/12/28 01:48:34;;;;;;;1.08;0.35;;;10.50;59.10;;;;;;2489654;55;21049;-69
2020/12/28 01:51:02;;;;;;;0.85;0.50;;;10.50;59.20;;;;;;2261589;56;20971;-70
2020/12/28 01:53:29;;;;;;;0.95;0.40;;;10.50;59.20;;;;;;2490033;55;20980;-70
2020/12/28 01:56:02;;;;;;;1.05;0.40;;;10.50;59.20;;;;;;2464643;55;21025;-70
2020/12/28 01:58:29;;;;;;;1.05;0.40;;;10.50;59.30;;;;;;2250732;56;21442;-69
2020/12/28 02:00:56;;;;;;;0.52;0.30;;;10.50;59.40;;;;;;2259374;55;21037;-70
2020/12/28 02:03:22;;;;;;;0.82;0.30;;;10.50;59.40;;;;;;2471843;55;20933;-70
2020/12/28 02:05:50;;;;;;;0.80;0.40;;;10.50;59.40;;;;;;2488191;55;21023;-70
2020/12/28 02:08:16;;;;;;;1.05;0.40;;;10.50;59.20;;;;;;2488267;55;21824;-70
2020/12/28 02:10:45;;;;;;;0.95;0.30;;;10.50;59.40;;;;;;2488706;55;20981;-69
2020/12/28 02:13:11;;;;;;;0.93;0.40;;;10.50;59.30;;;;;;2490019;55;21811;-71
2020/12/28 02:15:39;;;;;;;2.58;0.50;;;10.50;59.40;;;;;;2262558;56;21851;-70
2020/12/28 02:18:06;;;;;;;0.20;0.20;;;10.60;59.60;;;;;;2264838;55;21083;-70
2020/12/28 02:20:34;;;;;;;0.73;0.37;;;10.50;59.60;;;;;;2267818;56;20986;-70
2020/12/28 02:23:00;;;;;;;0.75;0.30;;;10.50;59.70;;;;;;2255793;55;21496;-70
2020/12/28 02:25:27;;;;;;;0.37;0.30;;;10.50;59.80;;;;;;2262321;56;20996;-69
2020/12/28 02:27:54;;;;;;;0.90;0.43;;;10.50;58.90;;;;;;2490048;55;20980;-70
2020/12/28 02:30:21;;;;;;;1.73;0.50;;;10.50;58.90;;;;;;2261691;56;21102;-71
2020/12/28 02:32:48;;;;;;;1.98;0.32;;;10.50;59.00;;;;;;2489470;55;21045;-69
2020/12/28 02:35:15;;;;;;;1.10;0.40;;;10.50;59.00;;;;;;2488394;55;21054;-70
2020/12/28 02:37:42;;;;;;;0.37;0.20;;;10.50;59.30;;;;;;2478303;55;20952;-70
2020/12/28 02:40:09;;;;;;;1.12;0.37;;;10.40;59.30;;;;;;2260741;56;20969;-70
2020/12/28 02:42:36;;;;;;;0.57;0.30;;;10.50;59.40;;;;;;2268600;55;21550;-70
2020/12/28 02:45:03;;;;;;;0.52;0.30;;;10.40;59.50;;;;;;2245426;56;21747;-70
2020/12/28 02:47:29;;;;;;;0.73;0.30;;;10.40;59.30;;;;;;2488256;55;22096;-70
2020/12/28 02:49:56;;;;;;;0.50;0.30;;;10.40;59.00;;;;;;2260752;56;21876;-71
2020/12/28 02:52:22;;;;;;;0.98;0.40;;;10.40;59.00;;;;;;2265049;56;21044;-70
2020/12/28 02:54:49;;;;;;;0.68;0.35;;;10.40;59.00;;;;;;2490484;55;20965;-70
2020/12/28 02:57:15;;;;;;;0.88;0.47;;;10.40;58.50;;;;;;2272637;56;20982;-69
2020/12/28 02:59:42;;;;;;;0.68;0.30;;;10.40;58.60;;;;;;2250386;56;21032;-70
2020/12/28 03:02:09;;;;;;;0.80;0.40;;;10.30;58.80;;;;;;2268886;55;21867;-71
2020/12/28 03:04:37;;;;;;;1.00;0.45;;;10.30;58.90;;;;;;2259891;56;21005;-70
2020/12/28 03:07:03;;;;;;;1.23;0.40;;;10.30;58.70;;;;;;2490046;55;21060;-71
2020/12/28 03:09:33;;;;;;;0.77;0.30;;;10.30;58.90;;;;;;2264600;56;21042;-70
2020/12/28 03:12:00;;;;;;;1.12;0.35;;;10.30;59.00;;;;;;2484029;55;20980;-70
2020/12/28 03:14:26;;;;;;;0.68;0.40;;;10.30;59.30;;;;;;2262762;55;21061;-70
2020/12/28 03:16:52;;;;;;;0.73;0.40;;;10.30;59.30;;;;;;2261034;56;20981;-70
2020/12/28 03:19:19;;;;;;;1.10;0.35;;;10.30;59.20;;;;;;2260765;56;20956;-70
2020/12/28 03:21:46;;;;;;;0.80;0.30;;;10.30;59.50;;;;;;2265517;56;21055;-70
2020/12/28 03:24:16;;;;;;;0.30;0.30;;;10.30;59.50;;;;;;2262544;55;21052;-70
2020/12/28 03:26:42;;;;;;;1.62;0.30;;;10.30;59.30;;;;;;2464278;55;21020;-69
2020/12/28 03:29:11;;;;;;;1.33;0.40;;;10.30;59.60;;;;;;2489210;55;20964;-70
2020/12/28 03:31:38;;;;;;;0.93;0.40;;;10.30;59.60;;;;;;2261749;56;21060;-70
2020/12/28 03:34:08;;;;;;;0.62;0.30;;;10.20;59.60;;;;;;2491024;55;21040;-70
2020/12/28 03:36:35;;;;;;;0.50;0.30;;;10.20;59.90;;;;;;2260639;56;21551;-70
2020/12/28 03:39:02;;;;;;;0.52;0.40;;;10.20;60.10;;;;;;2489445;55;21501;-70
2020/12/28 03:41:29;;;;;;;0.80;0.40;;;10.20;60.20;;;;;;2268389;55;21034;-70
2020/12/28 03:43:56;;;;;;;1.45;0.40;;;10.10;60.20;;;;;;2255116;55;21909;-70
2020/12/28 03:46:23;;;;;;;1.80;0.50;;;10.10;60.40;;;;;;2259194;55;21047;-70
2020/12/28 03:48:50;;;;;;;0.60;0.28;;;10.10;60.60;;;;;;2256207;56;21001;-70
2020/12/28 03:51:16;;;;;;;1.37;0.50;;;10.00;60.70;;;;;;2249153;56;20964;-70
2020/12/28 03:53:43;;;;;;;0.82;0.30;;;10.00;60.70;;;;;;2261329;56;21063;-70
2020/12/28 03:56:10;;;;;;;1.17;0.50;;;10.00;61.00;;;;;;2485112;55;21058;-70
2020/12/28 03:58:37;;;;;;;1.25;0.50;;;10.00;61.20;;;;;;2249270;56;21540;-70
2020/12/28 04:01:06;;;;;;;0.62;0.32;;;9.90;62.40;;;;;;2261262;56;20960;-70
2020/12/28 04:03:35;;;;;;;1.20;0.47;;;9.90;62.50;;;;;;2490931;55;20944;-70
2020/12/28 04:06:01;;;;;;;1.15;0.40;;;9.90;62.60;;;;;;2264876;55;21041;-70
2020/12/28 04:08:28;;;;;;;1.05;0.40;;;9.90;62.50;;;;;;2489848;55;21080;-70
2020/12/28 04:10:57;;;;;;;1.75;0.47;;;9.90;62.80;;;;;;2490679;55;20964;-70
2020/12/28 04:13:25;;;;;;;0.98;0.50;;;9.90;62.60;;;;;;2262085;56;20979;-69
2020/12/28 04:15:51;;;;;;;2.10;0.50;;;9.90;62.80;;;;;;2490329;55;21020;-70
2020/12/28 04:18:18;;;;;;;0.73;0.30;;;9.90;62.90;;;;;;2490273;55;21048;-70
2020/12/28 04:20:44;;;;;;;1.00;0.40;;;9.90;62.90;;;;;;2490082;55;21060;-71
2020/12/28 04:23:11;;;;;;;0.77;0.40;;;9.80;62.60;;;;;;2262223;56;21012;-70
2020/12/28 04:25:40;;;;;;;0.73;0.32;;;9.80;62.80;;;;;;2490341;55;21012;-70
2020/12/28 04:28:06;;;;;;;1.12;0.40;;;9.80;63.00;;;;;;2253539;55;21065;-70
2020/12/28 04:30:33;;;;;;;0.93;0.30;;;9.80;62.90;;;;;;2489824;55;21079;-70
2020/12/28 04:32:59;;;;;;;1.17;0.50;;;9.80;62.60;;;;;;2490048;55;21000;-70
2020/12/28 04:35:28;;;;;;;1.40;0.50;;;9.80;62.90;;;;;;2489796;55;20956;-71
2020/12/28 04:37:55;;;;;;;1.95;0.40;;;9.80;62.50;;;;;;2261218;56;20969;-70
2020/12/28 04:40:21;;;;;;;1.08;0.37;;;9.80;62.80;;;;;;2429207;56;21101;-70
2020/12/28 04:42:48;;;;;;;0.88;0.37;;;9.80;62.80;;;;;;2237419;56;20974;-70
2020/12/28 04:45:14;;;;;;;0.93;0.35;;;9.80;62.60;;;;;;2458742;56;21015;-70
2020/12/28 04:47:41;;;;;;;0.98;0.30;;;9.80;62.60;;;;;;2240160;56;20991;-70
2020/12/28 04:50:10;;;;;;;0.50;0.30;;;9.80;62.70;;;;;;2460551;55;21050;-70
2020/12/28 04:52:36;;;;;;;0.40;0.35;;;9.80;62.60;;;;;;2459127;55;21095;-70
2020/12/28 04:55:04;;;;;;;1.10;0.35;;;9.70;62.70;;;;;;2477918;55;20970;-70
2020/12/28 04:57:40;;;;;;;0.70;0.30;;;9.80;62.80;;;;;;2458722;55;20947;-70
2020/12/28 05:00:08;;;;;;;0.30;0.20;;;9.70;62.90;;;;;;2471895;55;21044;-70
2020/12/28 05:02:35;;;;;;;0.93;0.40;;;9.70;62.70;;;;;;2243753;55;21003;-70
2020/12/28 05:05:08;;;;;;;1.42;0.40;;;9.70;62.60;;;;;;2476395;55;21722;-69
2020/12/28 05:07:35;;;;;;;0.88;0.45;;;9.70;62.20;;;;;;2473005;55;21039;-70
2020/12/28 05:10:02;;;;;;;0.65;0.30;;;9.70;62.60;;;;;;2476418;55;21013;-70
2020/12/28 05:12:28;;;;;;;0.88;0.30;;;9.70;62.80;;;;;;2469987;55;20943;-70
2020/12/28 05:15:07;;;;;;;0.43;0.30;;;9.70;62.80;;;;;;2255651;55;21101;-70
2020/12/28 05:17:34;;;;;;;1.77;0.32;;;9.70;62.80;;;;;;2460581;55;21495;-70
2020/12/28 05:20:01;;;;;;;0.70;0.40;;;9.70;62.80;;;;;;2477342;55;22013;-70
2020/12/28 05:22:28;;;;;;;1.52;0.37;;;9.70;63.10;;;;;;2480050;55;21405;-69
2020/12/28 05:24:58;;;;;;;1.33;0.32;;;9.70;63.00;;;;;;2422117;56;21007;-70
2020/12/28 05:27:27;;;;;;;1.00;0.40;;;9.70;62.90;;;;;;2264554;55;20972;-70
2020/12/28 05:29:54;;;;;;;0.50;0.30;;;9.60;62.60;;;;;;2469140;55;21520;-70
2020/12/28 05:32:23;;;;;;;0.68;0.35;;;9.60;62.60;;;;;;2477285;55;20957;-69
2020/12/28 05:34:49;;;;;;;1.02;0.40;;;9.60;62.70;;;;;;2257352;56;21056;-69
2020/12/28 05:37:15;;;;;;;1.15;0.40;;;9.60;62.70;;;;;;2483859;55;21008;-69
2020/12/28 05:39:43;;;;;;;1.58;0.50;;;9.60;62.60;;;;;;2260305;55;21029;-69
2020/12/28 05:42:14;;;;;;;0.90;0.50;;;9.60;62.70;;;;;;2485386;55;20993;-70
2020/12/28 05:44:54;;;;;;;0.45;0.30;;;9.70;62.90;;;;;;2261251;55;21017;-69
2020/12/28 05:47:20;;;;;;;0.62;0.30;;;9.70;63.00;;;;;;2257508;55;21072;-70
2020/12/28 05:49:48;;;;;;;1.12;0.40;;;9.70;63.20;;;;;;2482698;55;21060;-70
2020/12/28 05:52:17;;;;;;;1.20;0.40;;;9.70;63.30;;;;;;2474771;55;20982;-70
2020/12/28 05:54:44;;;;;;;1.05;0.37;;;9.70;63.20;;;;;;2261141;55;20980;-70
2020/12/28 05:57:10;;;;;;;1.98;0.80;;;9.70;63.00;;;;;;2488918;55;21036;-70
2020/12/28 05:59:40;;;;;;;0.98;0.47;;;9.70;63.20;;;;;;2489829;55;21009;-70
2020/12/28 06:02:10;;;;;;;0.77;0.30;;;9.70;63.40;;;;;;2490606;55;20978;-70
2020/12/28 06:04:38;;;;;;;0.88;0.37;;;9.70;63.50;;;;;;2490478;55;21037;-70
2020/12/28 06:07:04;;;;;;;0.60;0.30;;;9.80;63.50;;;;;;2260613;55;21969;-70
2020/12/28 06:09:31;;;;;;;0.65;0.30;;;9.80;63.60;;;;;;2488761;55;21016;-70
2020/12/28 06:12:04;;;;;;;2.87;0.60;;;9.80;63.60;;;;;;2261046;56;20992;-70
2020/12/28 06:14:38;;;;;;;0.55;0.30;;;9.80;63.60;;;;;;2464283;55;20992;-70
2020/12/28 06:17:13;;;;;;;0.90;0.40;;;9.80;63.50;;;;;;2244856;56;21076;-70
2020/12/28 06:19:41;;;;;;;0.80;0.50;;;9.80;63.60;;;;;;2483791;55;20988;-70
2020/12/28 06:22:23;;;;;;;1.95;0.50;;;9.80;63.80;;;;;;2250492;56;21596;-70
2020/12/28 06:25:00;;;;;;;0.73;0.30;;;9.80;63.50;;;;;;2482652;55;20956;-70
2020/12/28 06:27:41;;;;;;;1.42;0.60;;;9.80;63.60;;;;;;2483548;55;20988;-70
2020/12/28 06:30:23;;;;;;;0.88;0.35;;;9.80;63.30;;;;;;2484281;55;21889;-70
2020/12/28 06:33:03;;;;;;;0.85;0.40;;;9.80;63.40;;;;;;2484985;55;21517;-70
2020/12/28 06:35:31;;;;;;;0.77;0.32;;;9.70;63.30;;;;;;2484854;55;20946;-70
2020/12/28 06:38:01;;;;;;;0.98;0.20;;;9.70;63.70;;;;;;2259724;56;21022;-70
2020/12/28 06:40:34;;;;;;;0.13;0.10;;;9.70;63.70;;;;;;2255937;56;20957;-70
2020/12/28 06:43:16;;;;;;;0.47;0.28;;;9.70;63.80;;;;;;2257431;56;20932;-70
2020/12/28 06:45:44;;;;;;;0.52;0.30;;;9.70;63.60;;;;;;2484248;55;21445;-70
2020/12/28 06:48:21;;;;;;;0.22;0.20;;;9.70;63.80;;;;;;2256383;56;21848;-70
2020/12/28 06:50:49;;;;;;;0.52;0.20;;;9.70;63.70;;;;;;2480736;55;21135;-70
2020/12/28 06:53:26;;;;;;;0.13;0.13;;;9.70;64.00;;;;;;2256487;56;20921;-71
2020/12/28 06:55:52;;;;;;;0.28;0.20;;;9.60;63.70;;;;;;2485421;55;21037;-70
2020/12/28 06:58:19;;;;;;;0.62;0.30;;;9.60;63.80;;;;;;2484450;55;20973;-70
2020/12/28 07:00:47;;;;;;;0.90;0.40;;;9.60;63.90;;;;;;2256885;57;20953;-70
2020/12/28 07:03:16;;;;;;;0.20;0.20;;;9.60;64.10;;;;;;2484891;55;21065;-70
2020/12/28 07:05:42;;;;;;;0.13;0.13;;;9.60;64.20;;;;;;2256901;57;21717;-70
2020/12/28 07:08:10;;;;;;;0.60;0.28;;;9.60;64.20;;;;;;2255702;56;21060;-71
2020/12/28 07:10:36;;;;;;;0.15;0.15;;;9.60;64.30;;;;;;2264688;56;21052;-70
2020/12/28 07:13:04;;;;;;;0.52;0.20;;;9.60;64.40;;;;;;2255086;56;21024;-71
2020/12/28 07:15:30;;;;;;;1.62;0.20;;;9.60;64.40;;;;;;2256831;56;21383;-70
2020/12/28 07:18:06;;;;;;;0.15;0.13;;;9.60;64.50;;;;;;2256027;56;21057;-70
2020/12/28 07:20:33;;;;;;;0.22;0.20;;;9.60;64.50;;;;;;2485162;55;20922;-70
2020/12/28 07:22:59;;;;;;;0.10;0.10;;;9.60;64.70;;;;;;2475068;55;21077;-70
2020/12/28 07:25:26;;;;;;;0.73;0.30;;;9.60;64.70;;;;;;2481341;55;21021;-70
2020/12/28 07:27:54;;;;;;;0.20;0.20;;;9.60;64.70;;;;;;2260268;56;21548;-70
2020/12/28 07:30:20;;;;;;;1.10;0.30;;;9.60;64.70;;;;;;2256520;56;21029;-70
2020/12/28 07:32:46;;;;;;;0.98;0.40;;;9.60;64.70;;;;;;2260862;56;20973;-69
2020/12/28 07:35:13;;;;;;;1.40;0.52;;;9.60;64.70;;;;;;2472277;55;21017;-70
2020/12/28 07:37:44;;;;;;;6.25;2.70;;;9.60;64.80;;;;;;2255524;56;20968;-71
2020/12/28 07:40:10;;;;;;;2.50;0.88;;;9.70;64.90;;;;;;2483781;55;20970;-71
2020/12/28 07:42:36;;;;;;;3.08;1.10;;;9.70;65.00;;;;;;2263709;56;21008;-70
2020/12/28 07:45:05;;;;;;;2.53;1.10;;;9.70;65.00;;;;;;2253495;56;20940;-70
2020/12/28 07:47:48;;;;;;;2.05;1.00;;;9.70;64.90;;;;;;2483539;55;21092;-71
2020/12/28 07:50:15;;;;;;;2.90;1.37;;;9.70;64.70;;;;;;2483991;55;21028;-69
2020/12/28 07:52:53;;;;;;;2.92;1.33;;;9.70;65.10;;;;;;2241703;56;20949;-69
2020/12/28 07:55:20;;;;;;;3.60;1.10;;;9.70;64.90;;;;;;2489832;55;20996;-70
2020/12/28 07:59:57;;;;;;;1.20;0.47;;;9.70;64.90;;;;;;2489412;55;21783;-70
2020/12/28 08:02:47;;;;;;;0.40;0.20;;;9.80;64.30;;;;;;2488982;55;20948;-70
2020/12/28 08:05:13;;;;;;;0.37;0.20;;;9.80;64.90;;;;;;2464616;55;20981;-71
2020/12/28 08:07:40;;;;;;;0.73;0.30;;;9.80;65.10;;;;;;2264346;55;21020;-71
2020/12/28 08:10:08;;;;;;;0.20;0.20;;;9.80;65.20;;;;;;2483693;55;21060;-71
2020/12/28 08:12:39;;;;;;;0.88;0.30;;;9.80;65.10;;;;;;2490770;55;20936;-70
2020/12/28 08:15:06;;;;;;;1.23;0.60;;;9.90;65.40;;;;;;2478929;55;21027;-70
2020/12/28 08:17:33;;;;;;;2.00;0.70;;;9.80;65.10;;;;;;2473312;55;21004;-71
2020/12/28 08:20:13;;;;;;;1.37;0.47;;;9.90;65.00;;;;;;2463713;55;20972;-70
2020/12/28 08:22:40;;;;;;;0.98;0.37;;;9.90;65.10;;;;;;2490770;55;21672;-70
2020/12/28 08:25:09;;;;;;;0.82;0.30;;;9.90;65.30;;;;;;2490341;55;21825;-70
2020/12/28 08:27:35;;;;;;;0.55;0.30;;;9.90;65.40;;;;;;2490192;55;21485;-71
2020/12/28 08:30:06;;;;;;;3.00;0.98;;;10.00;64.30;;;;;;2260643;55;21704;-71
2020/12/28 08:32:33;;;;;;;4.55;1.48;;;10.00;64.00;;;;;;2490856;55;20972;-70
2020/12/28 08:35:00;;;;;;;5.97;2.40;;;10.00;64.30;;;;;;2261328;56;21775;-70
2020/12/28 08:37:34;;;;;;;2.87;0.90;;;10.00;64.20;;;;;;2489608;55;21339;-70
2020/12/28 08:40:02;;;;;;;1.83;0.70;;;10.00;64.20;;;;;;2264868;55;21033;-69
2020/12/28 08:42:37;;;;;;;2.70;0.62;;;10.10;64.40;;;;;;2477703;55;21015;-70
2020/12/28 08:45:04;;;;;;;0.73;0.37;;;10.10;64.20;;;;;;2264220;55;21031;-69
2020/12/28 08:47:30;;;;;;;0.68;0.30;;;10.20;64.60;;;;;;2490416;55;20944;-69
2020/12/28 08:49:57;;;;;;;0.85;0.30;;;10.20;64.50;;;;;;2491765;55;20951;-69
2020/12/28 08:52:23;;;;;;;0.70;0.40;;;10.20;64.50;;;;;;2256298;56;21028;-69
2020/12/28 08:54:55;;;;;;;0.70;0.40;;;10.30;64.50;;;;;;2466544;55;21038;-69
2020/12/28 08:57:27;;;;;;;2.25;0.50;;;10.30;64.20;;;;;;2451092;55;20991;-70
2020/12/28 08:59:54;;;;;;;0.32;0.28;;;10.30;64.30;;;;;;2459478;55;21035;-69
2020/12/28 09:02:21;;;;;;;0.93;0.40;;;10.30;64.30;;;;;;2453705;55;21056;-69
2020/12/28 09:04:48;;;;;;;1.83;0.60;;;10.40;64.50;;;;;;2257050;56;20941;-69
2020/12/28 09:07:16;;;;;;;1.62;0.62;;;10.40;64.50;;;;;;2260630;55;21581;-69
2020/12/28 09:09:44;;;;;;;1.35;0.52;;;10.40;64.40;;;;;;2485476;55;20977;-69
2020/12/28 09:12:13;;;;;;;4.75;1.15;;;10.50;64.60;;;;;;2459581;55;21023;-69
2020/12/28 09:14:41;;;;;;;2.33;0.77;;;10.50;64.40;;;;;;2261160;55;21032;-69
2020/12/28 09:17:13;;;;;;;3.03;1.10;;;10.50;64.50;;;;;;2489405;55;20995;-70
2020/12/28 09:19:40;;;;;;;2.30;0.80;;;10.50;64.40;;;;;;2267996;55;21014;-69
2020/12/28 09:22:07;;;;;;;2.30;0.93;;;10.60;64.40;;;;;;2489714;55;20963;-69
2020/12/28 09:24:34;;;;;;;1.98;0.57;;;10.60;64.50;;;;;;2265169;55;21008;-69
2020/12/28 09:27:00;;;;;;;2.20;0.62;;;10.60;64.50;;;;;;2489415;55;20977;-70
2020/12/28 09:29:26;;;;;;;1.77;0.60;;;10.70;64.60;;;;;;2260554;56;21020;-69
2020/12/28 09:31:57;;;;;;;1.42;0.50;;;10.70;64.70;;;;;;2490405;55;21076;-70
2020/12/28 09:34:23;;;;;;;1.12;0.50;;;10.80;64.70;;;;;;2490600;55;21013;-69
2020/12/28 09:37:03;;;;;;;1.75;0.60;;;10.80;64.90;;;;;;2267258;55;20980;-70
2020/12/28 09:39:29;;;;;;;2.30;0.73;;;10.90;64.60;;;;;;2272722;55;21021;-70
2020/12/28 09:41:58;;;;;;;1.90;0.70;;;10.90;64.80;;;;;;2429436;55;21335;-70
2020/12/28 09:44:25;;;;;;;1.87;0.60;;;11.00;65.60;;;;;;2458964;56;21003;-69
2020/12/28 09:46:52;;;;;;;2.65;0.60;;;11.00;65.00;;;;;;2236764;55;21105;-70
2020/12/28 09:49:20;;;;;;;1.10;0.40;;;11.00;64.80;;;;;;2235490;56;20979;-70
2020/12/28 09:51:53;;;;;;;1.92;0.62;;;11.10;64.80;;;;;;2478914;55;21064;-69
2020/12/28 09:54:20;;;;;;;1.90;0.62;;;11.10;64.50;;;;;;2468153;55;20992;-70
2020/12/28 09:56:57;;;;;;;1.48;0.50;;;11.10;64.50;;;;;;2237073;56;21101;-70
2020/12/28 09:59:24;;;;;;;1.15;0.30;;;11.20;64.40;;;;;;2246840;56;21446;-69
2020/12/28 10:01:51;;;;;;;1.83;0.35;;;11.20;64.20;;;;;;2486190;55;21434;-71
2020/12/28 10:04:18;;;;;;;1.55;0.50;;;11.20;64.30;;;;;;2481589;55;21000;-70
2020/12/28 10:06:54;;;;;;;0.77;0.30;;;11.20;64.20;;;;;;2260861;56;21127;-70
2020/12/28 10:09:23;;;;;;;1.10;0.35;;;11.20;63.70;;;;;;2361211;55;1383285;-70
2020/12/28 10:11:50;;;;;;;0.30;0.20;;;11.20;63.80;;;;;;2257869;56;21116;-69
2020/12/28 10:14:20;;;;;;;1.90;0.55;;;11.30;64.00;;;;;;2489155;55;20988;-70
2020/12/28 10:16:47;;;;;;;2.33;0.40;;;11.30;63.90;;;;;;2489189;55;21461;-70
2020/12/28 10:19:14;;;;;;;1.87;0.40;;;11.30;63.70;;;;;;2488405;55;20928;-69
2020/12/28 10:21:42;;;;;;;1.20;0.37;;;11.30;63.60;;;;;;2261014;56;21859;-69
2020/12/28 10:24:09;;;;;;;1.35;0.40;;;11.30;63.40;;;;;;2490215;55;21549;-69
2020/12/28 10:26:36;;;;;;;1.52;0.52;;;11.30;62.40;;;;;;2261184;56;22091;-71
2020/12/28 10:29:03;;;;;;;1.27;0.50;;;11.20;61.40;;;;;;2261627;56;21041;-70
2020/12/28 10:31:32;;;;;;;2.92;0.75;;;11.20;61.40;;;;;;2260866;56;22114;-71
2020/12/28 10:34:00;;;;;;;2.08;0.62;;;11.10;61.30;;;;;;2485343;55;21597;-71
2020/12/28 10:36:29;;;;;;;2.12;0.82;;;11.10;61.20;;;;;;2261297;56;21829;-70
2020/12/28 10:38:59;;;;;;;3.55;1.20;;;11.00;61.30;;;;;;2485551;55;21608;-70
2020/12/28 10:41:38;;;;;;;4.47;1.55;;;11.00;61.50;;;;;;2469573;55;21032;-71
2020/12/28 10:44:05;;;;;;;2.30;0.75;;;10.90;61.40;;;;;;2485215;55;20920;-71
2020/12/28 10:46:34;;;;;;;2.35;0.70;;;10.90;61.60;;;;;;2487241;55;21144;-71
2020/12/28 10:49:00;;;;;;;2.17;0.70;;;10.80;61.70;;;;;;2466916;55;20992;-71
2020/12/28 10:51:27;;;;;;;2.50;0.80;;;10.80;61.50;;;;;;2251576;56;21460;-71
2020/12/28 10:53:54;;;;;;;1.67;0.80;;;10.80;61.60;;;;;;2478936;55;21033;-70
2020/12/28 10:56:25;;;;;;;2.47;0.73;;;10.70;60.70;;;;;;2465058;55;22453;-70
2020/12/28 10:58:52;;;;;;;3.12;0.77;;;10.60;60.80;;;;;;2470380;55;21513;-71
2020/12/28 11:01:23;;;;;;;3.30;0.90;;;10.60;61.10;;;;;;2232652;56;20976;-70
2020/12/28 11:03:50;;;;;;;1.80;0.77;;;10.50;61.00;;;;;;2251677;56;21902;-71
2020/12/28 11:06:23;;;;;;;3.65;1.20;;;10.40;61.20;;;;;;2238149;56;21075;-71
2020/12/28 11:08:50;;;;;;;2.92;1.10;;;10.30;61.40;;;;;;2463523;55;21113;-70
2020/12/28 11:11:17;;;;;;;1.80;0.70;;;10.20;61.30;;;;;;2471133;55;21743;-70
2020/12/28 11:13:45;;;;;;;1.70;0.70;;;10.10;61.70;;;;;;2441919;55;20991;-71
2020/12/28 11:16:12;;;;;;;2.00;0.80;;;10.00;61.90;;;;;;2224509;56;21026;-71
2020/12/28 11:18:51;;;;;;;1.25;0.52;;;9.90;63.00;;;;;;2470467;55;20981;-71
2020/12/28 11:21:19;;;;;;;1.70;0.73;;;9.90;63.10;;;;;;2454120;55;20961;-70
2020/12/28 11:24:03;;;;;;;1.42;0.57;;;9.70;62.50;;;;;;2248742;55;20992;-70
2020/12/28 11:26:31;;;;;;;1.67;0.60;;;9.60;61.90;;;;;;2252659;55;21036;-71
2020/12/28 11:28:58;;;;;;;2.22;0.88;;;9.40;62.20;;;;;;2473014;55;21381;-71
2020/12/28 11:31:25;;;;;;;3.22;0.80;;;9.30;62.50;;;;;;2247711;56;21012;-72
2020/12/28 11:33:52;;;;;;;1.60;0.70;;;9.20;63.00;;;;;;2471633;55;22096;-71
2020/12/28 11:36:19;;;;;;;2.17;0.75;;;9.10;63.20;;;;;;2460118;55;21052;-71
2020/12/28 11:38:47;;;;;;;1.80;0.62;;;8.90;64.10;;;;;;2255453;56;21348;-71
2020/12/28 11:41:14;;;;;;;1.05;0.43;;;8.90;63.70;;;;;;2442062;55;21787;-71
2020/12/28 11:43:43;;;;;;;2.17;0.60;;;8.80;63.90;;;;;;2209487;56;21666;-72
2020/12/28 11:46:11;;;;;;;0.98;0.50;;;8.70;64.20;;;;;;2209877;56;22326;-71
2020/12/28 11:48:39;;;;;;;0.70;0.40;;;8.70;64.30;;;;;;2429856;55;21917;-71
2020/12/28 11:51:06;;;;;;;2.12;0.70;;;8.60;64.50;;;;;;2187336;57;21140;-71
2020/12/28 11:53:36;;;;;;;2.30;1.00;;;8.60;64.70;;;;;;2409194;55;21996;-71
2020/12/28 11:56:05;;;;;;;2.70;1.10;;;8.50;64.50;;;;;;2212346;56;21833;-71
2020/12/28 11:58:39;;;;;;;2.37;0.90;;;8.50;64.80;;;;;;2187402;56;22212;-72
2020/12/28 12:01:16;;;;;;;1.20;0.50;;;8.50;64.90;;;;;;2376175;55;20994;-72
2020/12/28 12:03:47;;;;;;;0.98;0.50;;;8.40;65.00;;;;;;2161667;55;21930;-72
2020/12/28 12:06:17;;;;;;;1.00;0.40;;;8.40;65.20;;;;;;2333770;56;22291;-72
2020/12/28 12:11:36;;;;;;;1.10;0.43;;;8.50;65.60;;;;;;2365968;55;21538;-72
2020/12/28 12:14:06;;;;;;;1.37;0.55;;;8.50;65.80;;;;;;2347639;55;21452;-71
2020/12/28 12:16:37;;;;;;;1.62;0.73;;;8.50;65.80;;;;;;2336633;55;21459;-72
2020/12/28 12:19:09;;;;;;;2.10;0.98;;;8.50;65.90;;;;;;2304586;57;21943;-71
2020/12/28 12:21:37;;;;;;;1.52;0.57;;;8.50;66.00;;;;;;2359357;55;21705;-71
2020/12/28 12:24:06;;;;;;;3.45;0.90;;;8.60;66.20;;;;;;2391463;55;21733;-72
2020/12/28 12:26:37;;;;;;;2.33;0.50;;;8.60;66.30;;;;;;2379215;55;21616;-72
2020/12/28 12:29:06;;;;;;;1.48;0.55;;;8.60;66.40;;;;;;2384379;55;22150;-72
2020/12/28 12:31:37;;;;;;;1.20;0.55;;;8.70;66.70;;;;;;2181552;55;22307;-72
2020/12/28 12:34:13;;;;;;;2.30;0.77;;;8.70;66.70;;;;;;2365882;55;21625;-71
2020/12/28 12:36:49;;;;;;;1.92;0.70;;;8.80;66.20;;;;;;2151506;56;21833;-70
2020/12/28 12:39:18;;;;;;;1.70;0.70;;;8.80;66.30;;;;;;2145780;56;21172;-70
2020/12/28 12:41:47;;;;;;;1.65;0.65;;;8.90;66.60;;;;;;2356828;55;22042;-70
2020/12/28 12:44:16;;;;;;;2.35;0.68;;;8.90;67.00;;;;;;2379531;55;21852;-71
2020/12/28 12:46:45;;;;;;;1.23;0.50;;;9.00;67.20;;;;;;2411934;55;22703;-72
2020/12/28 12:49:19;;;;;;;1.65;0.50;;;9.10;67.50;;;;;;2422178;55;21806;-72
2020/12/28 12:51:46;;;;;;;2.62;0.40;;;9.30;67.20;;;;;;2414661;55;21155;-71
2020/12/28 12:54:15;;;;;;;1.15;0.47;;;9.30;66.90;;;;;;2415756;55;22192;-72
2020/12/28 12:56:46;;;;;;;1.35;0.60;;;9.40;66.70;;;;;;2201802;56;20996;-72
2020/12/28 12:59:15;;;;;;;1.70;0.70;;;9.50;66.60;;;;;;2218088;55;20973;-71
2020/12/28 13:01:46;;;;;;;2.00;0.62;;;9.60;66.10;;;;;;2213430;55;21802;-72